Time;durP1;ratioP1;P1;durP2;ratioP2;P2;SDS_P1;SDS_P2;PMS_P1;PMS_P2;Temp;Humidity;BMP_temperature;BMP_pressure;BME280_temperature;BME280_humidity;BME280_pressure;Samples;Min_cycle;Max_cycle;Signal;HPM_P1;HPM_P2
2022/02/19 00:00:50;;;;;;;1.97;0.57;;;10.60;99.90;;;;;;5044752;28;20459;-76
2022/02/19 00:03:19;;;;;;;1.30;0.80;;;10.60;99.90;;;;;;5044679;28;20457;-76
2022/02/19 00:05:47;;;;;;;3.73;1.80;;;10.80;99.90;;;;;;5046825;28;20451;-76
2022/02/19 00:08:17;;;;;;;1.43;0.50;;;10.60;99.90;;;;;;5044081;28;20895;-75
2022/02/19 00:10:46;;;;;;;1.83;0.63;;;10.60;99.90;;;;;;5047738;28;20463;-76
2022/02/19 00:13:14;;;;;;;1.00;0.70;;;10.70;99.90;;;;;;5042661;28;20461;-76
2022/02/19 00:15:42;;;;;;;0.70;0.70;;;10.50;99.90;;;;;;5042750;28;20947;-76
2022/02/19 00:18:11;;;;;;;2.50;0.80;;;10.40;99.90;;;;;;5040721;28;20453;-76
2022/02/19 00:20:39;;;;;;;3.03;0.67;;;10.40;99.90;;;;;;5042601;28;20458;-76
2022/02/19 00:23:08;;;;;;;2.63;0.80;;;10.40;99.90;;;;;;5040317;28;20456;-75
2022/02/19 00:25:37;;;;;;;2.83;0.60;;;10.40;99.90;;;;;;5047455;28;20470;-75
2022/02/19 00:28:06;;;;;;;1.13;0.70;;;10.40;99.90;;;;;;5041270;28;20488;-76
2022/02/19 00:30:34;;;;;;;3.10;1.10;;;10.50;99.70;;;;;;5046985;28;20456;-75
2022/02/19 00:33:02;;;;;;;4.50;0.90;;;10.60;98.70;;;;;;5045786;28;20529;-75
2022/02/19 00:35:31;;;;;;;2.90;0.90;;;10.70;98.10;;;;;;5046088;28;20813;-76
2022/02/19 00:37:59;;;;;;;4.63;1.53;;;10.80;97.40;;;;;;5041777;28;20449;-75
2022/02/19 00:40:27;;;;;;;3.30;1.13;;;10.70;96.90;;;;;;5044433;28;20469;-75
2022/02/19 00:42:57;;;;;;;3.23;1.03;;;10.60;95.60;;;;;;5044063;28;20467;-76
2022/02/19 00:45:25;;;;;;;2.20;0.70;;;10.60;95.00;;;;;;5043653;28;20462;-75
2022/02/19 00:47:54;;;;;;;1.03;0.90;;;10.50;93.40;;;;;;5042291;28;20486;-75
2022/02/19 00:50:22;;;;;;;3.37;0.80;;;10.40;92.60;;;;;;5042519;28;20460;-75
2022/02/19 00:52:55;;;;;;;4.70;1.10;;;10.50;93.20;;;;;;5040673;28;20479;-75
2022/02/19 00:55:23;;;;;;;4.03;0.83;;;10.50;90.80;;;;;;5046307;28;20975;-75
2022/02/19 00:57:52;;;;;;;3.03;0.70;;;10.20;88.80;;;;;;5046084;28;20501;-75
2022/02/19 01:00:22;;;;;;;0.73;0.60;;;10.30;90.20;;;;;;5043450;28;20535;-76
2022/02/19 01:02:50;;;;;;;3.10;0.90;;;10.50;90.80;;;;;;5044185;28;20550;-75
2022/02/19 01:05:19;;;;;;;4.97;1.30;;;10.50;91.20;;;;;;5036342;28;20487;-75
2022/02/19 01:07:47;;;;;;;1.17;0.60;;;10.20;87.20;;;;;;5043592;28;20495;-75
2022/02/19 01:10:15;;;;;;;1.73;0.50;;;10.30;89.20;;;;;;5042677;28;20469;-75
2022/02/19 01:12:43;;;;;;;1.90;0.90;;;10.10;85.80;;;;;;5039127;28;21352;-75
2022/02/19 01:15:12;;;;;;;1.73;0.60;;;10.20;86.50;;;;;;5037640;28;20459;-75
2022/02/19 01:17:42;;;;;;;2.57;1.50;;;10.20;84.90;;;;;;5041999;28;20513;-75
2022/02/19 01:20:11;;;;;;;2.07;0.70;;;10.30;86.60;;;;;;5054565;28;20486;-75
2022/02/19 01:22:42;;;;;;;2.00;0.80;;;10.00;79.40;;;;;;5045579;28;20478;-75
2022/02/19 01:25:11;;;;;;;2.20;0.90;;;9.90;78.50;;;;;;5047256;28;20457;-75
2022/02/19 01:27:39;;;;;;;1.60;0.70;;;9.80;79.90;;;;;;5041496;28;20503;-76
2022/02/19 01:30:09;;;;;;;1.33;0.73;;;9.90;78.40;;;;;;5043932;28;20475;-76
2022/02/19 01:32:37;;;;;;;3.10;0.73;;;9.90;74.80;;;;;;5040315;28;20922;-75
2022/02/19 01:35:07;;;;;;;4.50;0.77;;;10.00;73.80;;;;;;5042399;28;20448;-74
2022/02/19 01:37:36;;;;;;;2.90;1.73;;;10.10;73.20;;;;;;5042620;28;20546;-76
2022/02/19 01:40:05;;;;;;;2.33;0.73;;;10.10;75.80;;;;;;5042867;28;20458;-78
2022/02/19 01:42:33;;;;;;;4.83;1.10;;;9.80;71.80;;;;;;5043147;28;20476;-78
2022/02/19 01:45:01;;;;;;;2.10;0.60;;;9.60;71.00;;;;;;5036947;28;20460;-76
2022/02/19 01:47:29;;;;;;;1.53;0.70;;;9.70;72.30;;;;;;5036932;28;20531;-75
2022/02/19 01:49:58;;;;;;;2.00;0.97;;;9.90;72.00;;;;;;5039173;28;20848;-76
2022/02/19 01:52:27;;;;;;;0.90;0.60;;;10.00;71.90;;;;;;5057226;28;20479;-76
2022/02/19 01:54:56;;;;;;;4.13;1.03;;;10.10;71.30;;;;;;5040539;28;20454;-77
2022/02/19 01:57:25;;;;;;;1.10;0.60;;;10.10;70.40;;;;;;5039095;28;20454;-76
2022/02/19 01:59:53;;;;;;;1.53;0.80;;;9.90;70.40;;;;;;5039548;28;20546;-77
2022/02/19 02:02:22;;;;;;;1.00;0.60;;;9.70;65.30;;;;;;5045983;28;20494;-76
2022/02/19 02:04:50;;;;;;;1.90;0.70;;;9.80;66.90;;;;;;5045162;28;20439;-77
2022/02/19 02:07:19;;;;;;;5.13;0.90;;;9.70;67.30;;;;;;5036758;28;20461;-77
2022/02/19 02:09:49;;;;;;;3.83;0.70;;;9.90;70.50;;;;;;5037831;28;20534;-76
2022/02/19 02:12:17;;;;;;;4.70;1.10;;;10.00;70.00;;;;;;5041721;28;20898;-76
2022/02/19 02:14:46;;;;;;;3.33;0.70;;;9.90;67.30;;;;;;5037362;28;20440;-76
2022/02/19 02:17:14;;;;;;;3.20;1.03;;;9.90;68.80;;;;;;5040797;28;20463;-76
2022/02/19 02:19:42;;;;;;;1.70;0.60;;;10.00;65.90;;;;;;5039640;28;20464;-76
2022/02/19 02:22:15;;;;;;;2.30;0.70;;;10.10;69.10;;;;;;5039843;28;20474;-76
2022/02/19 02:24:44;;;;;;;1.20;0.73;;;10.00;66.20;;;;;;5037858;28;20455;-76
2022/02/19 02:27:13;;;;;;;1.93;0.60;;;10.10;67.20;;;;;;5034996;28;20545;-76
2022/02/19 02:29:42;;;;;;;3.50;0.90;;;10.20;68.20;;;;;;5040966;28;20804;-76
2022/02/19 02:32:11;;;;;;;0.83;0.80;;;10.20;71.70;;;;;;5041721;28;20521;-76
2022/02/19 02:34:50;;;;;;;2.77;1.10;;;10.20;69.00;;;;;;5041643;28;20916;-76
2022/02/19 02:37:21;;;;;;;1.77;0.60;;;10.30;71.00;;;;;;5037984;28;20451;-76
2022/02/19 02:39:51;;;;;;;3.47;1.00;;;10.30;71.10;;;;;;5040093;28;20820;-76
2022/02/19 02:42:20;;;;;;;2.50;0.80;;;10.30;69.90;;;;;;5039144;28;20685;-77
2022/02/19 02:44:51;;;;;;;2.70;0.70;;;10.50;71.90;;;;;;5036542;28;20537;-76
2022/02/19 02:47:43;;;;;;;2.00;0.70;;;10.10;64.70;;;;;;5041246;28;21122;-76
2022/02/19 02:50:12;;;;;;;1.70;0.73;;;10.10;65.20;;;;;;5040364;28;20479;-76
2022/02/19 02:52:41;;;;;;;1.23;0.70;;;10.30;66.90;;;;;;5040779;28;20471;-76
2022/02/19 02:55:12;;;;;;;4.37;0.73;;;10.40;66.90;;;;;;5054617;28;20452;-76
2022/02/19 02:57:41;;;;;;;2.13;0.80;;;10.30;62.80;;;;;;5037775;28;20509;-76
2022/02/19 03:00:11;;;;;;;3.97;0.80;;;10.10;61.60;;;;;;5041105;28;20470;-76
2022/02/19 03:02:40;;;;;;;2.50;1.20;;;10.00;62.00;;;;;;5039435;28;20547;-76
2022/02/19 03:05:10;;;;;;;5.67;1.30;;;10.20;65.30;;;;;;5045495;28;20467;-76
2022/02/19 03:07:39;;;;;;;1.83;1.30;;;10.00;62.30;;;;;;5042548;28;20475;-76
2022/02/19 03:10:10;;;;;;;2.10;0.73;;;10.00;60.50;;;;;;5040468;28;21006;-76
2022/02/19 03:12:39;;;;;;;1.10;0.60;;;9.90;60.50;;;;;;5048461;28;20499;-76
2022/02/19 03:15:08;;;;;;;4.23;0.90;;;9.90;61.50;;;;;;5040074;28;20517;-76
2022/02/19 03:17:37;;;;;;;1.63;0.80;;;9.80;58.10;;;;;;5038666;28;20531;-76
2022/02/19 03:20:08;;;;;;;5.40;0.70;;;9.90;58.10;;;;;;5040498;28;20463;-75
2022/02/19 03:22:37;;;;;;;4.23;0.70;;;9.90;59.20;;;;;;5042348;28;20484;-76
2022/02/19 03:25:05;;;;;;;1.43;0.67;;;10.00;57.90;;;;;;5038264;28;20514;-75
2022/02/19 03:27:35;;;;;;;4.40;1.10;;;9.90;57.00;;;;;;5037610;28;20515;-76
2022/02/19 03:30:04;;;;;;;0.80;0.60;;;9.60;53.80;;;;;;5041854;28;21046;-76
2022/02/19 03:32:33;;;;;;;2.07;0.67;;;9.60;56.40;;;;;;5041550;28;20475;-76
2022/02/19 03:35:01;;;;;;;1.83;0.77;;;9.50;53.60;;;;;;5041944;28;21008;-76
2022/02/19 03:37:33;;;;;;;2.00;0.70;;;9.60;55.60;;;;;;5040822;28;20441;-75
2022/02/19 03:40:06;;;;;;;2.00;0.70;;;9.80;56.50;;;;;;5040384;28;20444;-76
2022/02/19 03:42:36;;;;;;;2.20;0.80;;;10.10;58.70;;;;;;5040695;28;20475;-76
2022/02/19 03:45:07;;;;;;;0.87;0.60;;;10.30;60.90;;;;;;5039199;28;20456;-75
2022/02/19 03:47:35;;;;;;;1.63;0.73;;;10.20;57.60;;;;;;5039535;28;20808;-78
2022/02/19 03:50:04;;;;;;;1.80;1.10;;;10.10;56.10;;;;;;5034373;28;20485;-75
2022/02/19 03:52:32;;;;;;;1.00;0.57;;;10.00;53.00;;;;;;5042383;28;20483;-75
2022/02/19 03:55:01;;;;;;;2.20;0.70;;;9.70;52.50;;;;;;5040756;28;20457;-76
2022/02/19 03:57:29;;;;;;;1.47;0.60;;;9.80;53.50;;;;;;5040728;28;20457;-76
2022/02/19 03:59:59;;;;;;;1.43;0.50;;;9.70;53.00;;;;;;5041544;28;20458;-75
2022/02/19 04:02:27;;;;;;;2.07;0.70;;;9.60;49.30;;;;;;5037226;28;21044;-75
2022/02/19 04:04:55;;;;;;;3.30;0.80;;;9.40;47.90;;;;;;5051262;28;20456;-76
2022/02/19 04:07:24;;;;;;;3.80;0.60;;;9.40;47.70;;;;;;5039498;28;20478;-75
2022/02/19 04:09:52;;;;;;;1.53;0.87;;;9.50;49.00;;;;;;5043180;28;20486;-76
2022/02/19 04:12:22;;;;;;;1.30;0.77;;;9.40;46.60;;;;;;5044547;28;20500;-76
2022/02/19 04:14:50;;;;;;;1.07;0.80;;;9.30;45.80;;;;;;5046258;28;21009;-76
2022/02/19 04:17:21;;;;;;;1.50;0.63;;;9.30;44.40;;;;;;5043889;28;20482;-76
2022/02/19 04:19:53;;;;;;;6.70;1.00;;;9.40;45.60;;;;;;5042102;28;20463;-76
2022/02/19 04:22:21;;;;;;;4.73;0.97;;;9.50;48.40;;;;;;5045449;28;20490;-76
2022/02/19 04:24:50;;;;;;;3.83;1.20;;;9.60;46.80;;;;;;5045352;28;21039;-76
2022/02/19 04:27:19;;;;;;;1.13;0.70;;;9.30;42.90;;;;;;5043706;28;20455;-76
2022/02/19 04:29:48;;;;;;;3.70;0.90;;;9.40;43.50;;;;;;5042011;28;20474;-76
2022/02/19 04:32:16;;;;;;;1.63;0.60;;;9.40;42.70;;;;;;5043683;28;21190;-76
2022/02/19 04:34:46;;;;;;;1.77;0.93;;;9.40;42.60;;;;;;5044006;28;20907;-76
2022/02/19 04:37:14;;;;;;;1.07;0.70;;;9.20;39.30;;;;;;5043812;28;20447;-76
2022/02/19 04:39:43;;;;;;;2.13;0.80;;;9.20;41.20;;;;;;5041576;28;21189;-76
2022/02/19 04:42:11;;;;;;;2.37;0.93;;;9.40;41.60;;;;;;5044309;28;20819;-76
2022/02/19 04:44:40;;;;;;;3.33;0.70;;;9.60;42.50;;;;;;5040267;28;20455;-76
2022/02/19 04:47:08;;;;;;;1.23;0.50;;;9.60;41.70;;;;;;5039373;28;20982;-77
2022/02/19 04:49:37;;;;;;;1.90;1.13;;;9.60;42.60;;;;;;5042244;28;20559;-77
2022/02/19 04:52:07;;;;;;;1.53;0.70;;;9.70;42.70;;;;;;5044078;28;21028;-76
2022/02/19 04:54:35;;;;;;;0.90;0.50;;;9.80;42.50;;;;;;5043471;28;20970;-76
2022/02/19 04:57:03;;;;;;;3.03;0.83;;;9.70;41.20;;;;;;5044843;28;20466;-76
2022/02/19 04:59:32;;;;;;;1.70;0.57;;;9.60;38.00;;;;;;5042031;28;21393;-76
2022/02/19 05:02:00;;;;;;;3.60;0.73;;;9.60;38.30;;;;;;5043301;28;20529;-75
2022/02/19 05:04:28;;;;;;;0.63;0.60;;;9.50;36.50;;;;;;5040104;28;20459;-76
2022/02/19 05:06:57;;;;;;;0.70;0.60;;;9.40;35.60;;;;;;5044991;28;20533;-76
2022/02/19 05:09:26;;;;;;;2.97;0.97;;;9.30;35.50;;;;;;5035670;28;20533;-76
2022/02/19 05:11:54;;;;;;;3.30;0.70;;;9.30;35.80;;;;;;5045207;28;20527;-76
2022/02/19 05:14:23;;;;;;;1.00;0.67;;;9.10;34.40;;;;;;5040751;28;20451;-77
2022/02/19 05:16:51;;;;;;;1.23;0.60;;;9.30;33.40;;;;;;5039031;28;20452;-76
2022/02/19 05:19:19;;;;;;;1.20;0.70;;;9.00;33.70;;;;;;5037904;28;20459;-75
2022/02/19 05:21:47;;;;;;;1.03;0.70;;;9.10;33.00;;;;;;5044063;28;20467;-76
2022/02/19 05:24:15;;;;;;;2.03;0.60;;;9.00;33.00;;;;;;5041911;28;20449;-76
2022/02/19 05:26:45;;;;;;;2.63;0.97;;;9.20;33.90;;;;;;5043837;28;20851;-76
2022/02/19 05:29:14;;;;;;;2.30;0.73;;;9.30;35.80;;;;;;5042001;28;20471;-77
2022/02/19 05:31:42;;;;;;;2.60;0.60;;;9.50;36.20;;;;;;5044271;28;20575;-76
2022/02/19 05:34:11;;;;;;;1.33;0.60;;;9.60;36.90;;;;;;5038868;28;20470;-77
2022/02/19 05:36:39;;;;;;;1.10;0.90;;;9.70;39.00;;;;;;5043654;28;20440;-77
2022/02/19 05:39:07;;;;;;;4.37;0.83;;;9.70;37.90;;;;;;5043590;28;20458;-77
2022/02/19 05:41:36;;;;;;;3.90;0.60;;;9.80;38.70;;;;;;5042275;28;20495;-76
2022/02/19 05:44:06;;;;;;;2.00;0.70;;;9.70;36.60;;;;;;5042463;28;20445;-76
2022/02/19 05:46:35;;;;;;;1.07;0.70;;;9.50;33.70;;;;;;5042516;28;20446;-77
2022/02/19 05:49:04;;;;;;;2.30;0.60;;;9.60;35.00;;;;;;5043940;28;20472;-76
2022/02/19 05:51:32;;;;;;;2.17;0.90;;;9.60;33.40;;;;;;5043067;28;20497;-77
2022/02/19 05:54:00;;;;;;;1.20;0.53;;;9.60;35.20;;;;;;5039928;28;20463;-76
2022/02/19 05:56:28;;;;;;;1.87;0.60;;;9.60;33.20;;;;;;5040302;28;20459;-76
2022/02/19 05:58:57;;;;;;;1.70;0.70;;;9.60;34.30;;;;;;5041828;28;20493;-76
2022/02/19 06:01:26;;;;;;;1.53;1.33;;;9.60;34.10;;;;;;5040388;28;20482;-76
2022/02/19 06:03:54;;;;;;;2.27;0.63;;;9.50;31.90;;;;;;5039376;28;20463;-76
2022/02/19 06:06:23;;;;;;;1.07;0.67;;;9.50;32.70;;;;;;5041789;28;21045;-77
2022/02/19 06:08:51;;;;;;;0.50;0.50;;;9.40;31.10;;;;;;5036997;28;20480;-76
2022/02/19 06:11:19;;;;;;;1.90;0.53;;;9.40;30.80;;;;;;5040544;28;20489;-76
2022/02/19 06:13:48;;;;;;;0.50;0.50;;;9.30;31.00;;;;;;5043330;28;20471;-77
2022/02/19 06:16:16;;;;;;;4.33;0.80;;;9.10;29.10;;;;;;5041680;28;20461;-77
2022/02/19 06:18:46;;;;;;;2.50;0.83;;;9.10;28.80;;;;;;5042257;28;20471;-76
2022/02/19 06:21:14;;;;;;;1.77;0.67;;;9.20;29.10;;;;;;5040890;28;20467;-77
2022/02/19 06:23:42;;;;;;;2.80;0.80;;;9.20;30.90;;;;;;5040714;28;20455;-76
2022/02/19 06:26:10;;;;;;;2.53;0.80;;;9.20;29.80;;;;;;5040840;28;20462;-77
2022/02/19 06:28:38;;;;;;;1.23;0.50;;;9.20;29.30;;;;;;5038104;28;20975;-76
2022/02/19 06:31:07;;;;;;;1.47;0.93;;;9.30;31.10;;;;;;5039347;28;20492;-77
2022/02/19 06:33:35;;;;;;;1.63;0.73;;;9.40;31.90;;;;;;5040660;28;20470;-76
2022/02/19 06:36:05;;;;;;;2.07;0.80;;;9.50;32.50;;;;;;5038585;28;20452;-77
2022/02/19 06:38:39;;;;;;;2.03;0.80;;;9.50;31.10;;;;;;5039045;28;20522;-76
2022/02/19 06:41:07;;;;;;;1.83;0.70;;;9.40;30.90;;;;;;5040277;28;21018;-77
2022/02/19 06:43:36;;;;;;;1.13;0.80;;;9.50;30.80;;;;;;5041921;28;20461;-77
2022/02/19 06:46:05;;;;;;;2.63;0.90;;;9.30;29.20;;;;;;5039769;28;20466;-77
2022/02/19 06:48:33;;;;;;;1.50;0.70;;;9.30;29.40;;;;;;5040908;28;20461;-76
2022/02/19 06:51:01;;;;;;;2.93;1.10;;;9.30;29.30;;;;;;5041963;28;20473;-73
2022/02/19 06:53:31;;;;;;;4.43;0.80;;;9.10;27.50;;;;;;5038856;28;20524;-77
2022/02/19 06:55:59;;;;;;;1.33;0.70;;;9.10;27.80;;;;;;5041854;28;20459;-76
2022/02/19 06:58:27;;;;;;;1.97;0.70;;;9.20;28.50;;;;;;5036458;28;20455;-76
2022/02/19 07:00:55;;;;;;;0.77;0.60;;;9.10;28.00;;;;;;5038697;28;20496;-77
2022/02/19 07:03:24;;;;;;;1.60;0.67;;;9.20;29.10;;;;;;5039968;28;20469;-76
2022/02/19 07:05:53;;;;;;;1.70;1.07;;;9.40;30.50;;;;;;5038768;28;20466;-76
2022/02/19 07:08:22;;;;;;;0.90;0.70;;;9.20;28.40;;;;;;5038129;28;20542;-77
2022/02/19 07:10:52;;;;;;;1.40;0.90;;;9.20;27.20;;;;;;5041902;28;20482;-77
2022/02/19 07:13:20;;;;;;;2.37;1.13;;;9.00;26.80;;;;;;5038562;28;20467;-76
2022/02/19 07:15:48;;;;;;;2.80;2.53;;;8.90;27.40;;;;;;5034372;28;20459;-77
2022/02/19 07:18:16;;;;;;;2.50;0.90;;;9.10;28.20;;;;;;5040566;28;20474;-75
2022/02/19 07:20:47;;;;;;;1.90;0.83;;;9.20;31.80;;;;;;5037057;28;20451;-74
2022/02/19 07:23:15;;;;;;;2.43;0.90;;;9.30;31.00;;;;;;5060166;28;20475;-77
2022/02/19 07:25:44;;;;;;;6.27;1.00;;;9.20;29.10;;;;;;5035881;28;20452;-76
2022/02/19 07:28:13;;;;;;;0.83;0.70;;;9.40;32.00;;;;;;5040954;28;21040;-77
2022/02/19 07:30:43;;;;;;;2.40;0.87;;;9.50;31.80;;;;;;5040792;28;20466;-76
2022/02/19 07:33:12;;;;;;;2.50;1.00;;;9.30;29.30;;;;;;5036516;28;20527;-76
2022/02/19 07:35:40;;;;;;;0.90;0.60;;;9.20;29.10;;;;;;5039011;28;20487;-77
2022/02/19 07:38:08;;;;;;;2.20;0.70;;;9.40;34.40;;;;;;5043000;28;20486;-77
2022/02/19 07:40:36;;;;;;;2.20;0.80;;;9.40;32.50;;;;;;5037643;28;20464;-76
2022/02/19 07:43:08;;;;;;;1.10;0.80;;;9.40;32.10;;;;;;5043476;28;20471;-76
2022/02/19 07:45:38;;;;;;;3.60;1.10;;;9.40;31.40;;;;;;5039937;28;21650;-76
2022/02/19 07:48:06;;;;;;;2.20;0.70;;;9.40;31.80;;;;;;5040809;28;20532;-76
2022/02/19 07:58:51;;;;;;;4.63;0.70;;;9.90;38.60;;;;;;5041579;28;20446;-77
2022/02/19 08:01:20;;;;;;;1.00;0.63;;;10.00;39.10;;;;;;5043849;28;20468;-77
2022/02/19 08:03:48;;;;;;;1.23;0.67;;;10.10;37.70;;;;;;5039663;28;20455;-76
2022/02/19 08:06:17;;;;;;;0.87;0.60;;;10.20;39.80;;;;;;5041287;28;20439;-78
2022/02/19 08:08:45;;;;;;;1.20;0.80;;;10.20;41.10;;;;;;5048033;28;20436;-77
2022/02/19 08:11:14;;;;;;;1.80;1.23;;;10.30;41.70;;;;;;5043223;28;20489;-78
2022/02/19 08:13:42;;;;;;;0.80;0.70;;;10.30;40.10;;;;;;5040950;28;21011;-77
2022/02/19 08:16:11;;;;;;;3.43;1.63;;;10.40;40.40;;;;;;5046087;28;20455;-77
2022/02/19 08:18:42;;;;;;;2.40;0.90;;;10.40;39.30;;;;;;5042380;28;20823;-78
2022/02/19 08:21:10;;;;;;;6.50;0.93;;;10.40;39.50;;;;;;5049960;28;20495;-77
2022/02/19 08:23:38;;;;;;;4.17;1.00;;;10.40;42.00;;;;;;5038041;28;20479;-77
2022/02/19 08:26:07;;;;;;;2.07;0.57;;;10.60;41.90;;;;;;5036905;28;20447;-76
2022/02/19 08:28:35;;;;;;;2.97;2.77;;;10.70;44.30;;;;;;5038760;28;21094;-77
2022/02/19 08:31:03;;;;;;;1.83;0.80;;;10.60;39.30;;;;;;5045616;28;20449;-78
2022/02/19 08:33:31;;;;;;;3.20;1.00;;;10.70;41.50;;;;;;5037895;28;20502;-78
2022/02/19 08:36:01;;;;;;;5.07;0.90;;;10.80;44.10;;;;;;5041228;28;20484;-77
2022/02/19 08:38:29;;;;;;;3.87;1.00;;;11.10;46.60;;;;;;5039746;28;20455;-77
2022/02/19 08:40:58;;;;;;;2.20;1.03;;;11.20;48.00;;;;;;5049522;28;20441;-76
2022/02/19 08:43:26;;;;;;;1.43;0.90;;;11.50;49.50;;;;;;5048128;28;20543;-77
2022/02/19 08:45:54;;;;;;;3.90;0.97;;;11.60;49.50;;;;;;5047902;28;20456;-77
2022/02/19 08:48:22;;;;;;;7.73;1.00;;;11.80;49.40;;;;;;5048207;28;20455;-77
2022/02/19 08:50:51;;;;;;;2.80;1.00;;;12.10;51.60;;;;;;5045978;28;20460;-78
2022/02/19 08:53:23;;;;;;;1.40;0.80;;;12.20;51.30;;;;;;5046958;28;20489;-78
2022/02/19 08:55:51;;;;;;;2.30;1.00;;;12.40;52.50;;;;;;5046277;28;20449;-78
2022/02/19 08:58:19;;;;;;;3.40;1.07;;;12.70;54.20;;;;;;5042218;28;20465;-77
2022/02/19 09:00:48;;;;;;;2.50;0.90;;;12.80;51.10;;;;;;5044045;28;20455;-78
2022/02/19 09:03:16;;;;;;;2.83;1.00;;;12.90;53.10;;;;;;5044583;28;20450;-77
2022/02/19 09:05:46;;;;;;;1.23;1.00;;;13.00;53.50;;;;;;5047127;28;20500;-77
2022/02/19 09:08:14;;;;;;;1.87;0.77;;;13.10;54.30;;;;;;5043009;28;20529;-77
2022/02/19 09:10:44;;;;;;;1.70;0.80;;;13.20;53.80;;;;;;5044390;28;21051;-77
2022/02/19 09:13:13;;;;;;;1.33;0.60;;;13.10;52.30;;;;;;5046169;28;20562;-77
2022/02/19 09:15:42;;;;;;;4.50;0.80;;;13.10;48.80;;;;;;5048540;28;20478;-78
2022/02/19 09:18:10;;;;;;;3.00;0.70;;;12.90;47.00;;;;;;5048476;28;20461;-78
2022/02/19 09:20:38;;;;;;;4.57;0.90;;;12.90;46.60;;;;;;5049711;28;20469;-77
2022/02/19 09:23:06;;;;;;;1.83;0.77;;;12.80;46.10;;;;;;5040695;28;20471;-78
2022/02/19 09:25:35;;;;;;;2.50;0.67;;;12.70;44.20;;;;;;5045093;28;20548;-77
2022/02/19 09:28:05;;;;;;;1.60;0.60;;;12.80;46.00;;;;;;5048217;28;20459;-77
2022/02/19 09:30:33;;;;;;;1.63;0.70;;;12.90;45.40;;;;;;5049191;28;20479;-77
2022/02/19 09:33:02;;;;;;;1.83;1.73;;;12.90;45.60;;;;;;5049478;28;20490;-78
2022/02/19 09:35:31;;;;;;;5.80;0.73;;;13.00;45.20;;;;;;5048686;28;20472;-77
2022/02/19 09:37:59;;;;;;;1.37;0.70;;;13.10;46.80;;;;;;5043344;28;20468;-77
2022/02/19 09:40:27;;;;;;;1.93;0.80;;;13.50;49.60;;;;;;5056782;28;21020;-77
2022/02/19 09:42:56;;;;;;;1.77;0.90;;;13.70;51.90;;;;;;5038363;28;20471;-77
2022/02/19 09:45:29;;;;;;;2.20;0.90;;;13.70;51.20;;;;;;5039791;28;20463;-77
2022/02/19 09:47:58;;;;;;;2.07;0.90;;;13.60;46.70;;;;;;5046265;28;20835;-75
2022/02/19 09:50:28;;;;;;;1.53;0.90;;;13.40;46.00;;;;;;5048389;28;20459;-77
2022/02/19 09:52:56;;;;;;;2.40;0.80;;;13.50;46.50;;;;;;5048065;28;20517;-77
2022/02/19 09:55:24;;;;;;;1.53;0.70;;;13.70;47.90;;;;;;5048929;28;20448;-77
2022/02/19 09:57:52;;;;;;;0.80;0.60;;;13.90;48.90;;;;;;5049053;28;20457;-77
2022/02/19 10:00:30;;;;;;;1.53;0.80;;;14.20;52.80;;;;;;5033687;28;20565;-77
2022/02/19 10:03:00;;;;;;;2.37;0.70;;;14.60;56.10;;;;;;5049062;28;20504;-76
2022/02/19 10:05:31;;;;;;;2.27;1.10;;;14.90;58.20;;;;;;5047184;28;20475;-78
2022/02/19 10:08:06;;;;;;;2.13;0.70;;;15.30;63.10;;;;;;5048885;28;20829;-78
2022/02/19 10:10:35;;;;;;;2.57;1.00;;;15.60;64.30;;;;;;5044700;28;20454;-78
2022/02/19 10:13:10;;;;;;;2.27;0.80;;;15.80;67.30;;;;;;5046306;28;20488;-77
2022/02/19 10:15:49;;;;;;;2.60;0.70;;;16.20;70.90;;;;;;5048098;28;20442;-78
2022/02/19 10:18:25;;;;;;;1.33;0.67;;;16.50;73.10;;;;;;5043756;28;20562;-78
2022/02/19 10:20:55;;;;;;;4.47;0.80;;;16.40;68.40;;;;;;5048849;28;20510;-77
2022/02/19 10:23:25;;;;;;;3.10;0.90;;;16.40;67.70;;;;;;5048303;28;20469;-78
2022/02/19 10:26:03;;;;;;;3.87;0.80;;;16.20;64.80;;;;;;5048755;28;20451;-78
2022/02/19 10:28:31;;;;;;;1.77;0.70;;;16.20;80.10;;;;;;5044813;28;20458;-77
2022/02/19 10:31:13;;;;;;;3.00;0.90;;;16.10;62.00;;;;;;5048370;28;20489;-77
2022/02/19 10:33:42;;;;;;;1.10;0.70;;;16.40;64.70;;;;;;5047717;28;20528;-77
2022/02/19 10:36:19;;;;;;;1.67;0.80;;;16.80;70.40;;;;;;5048027;28;20471;-78
2022/02/19 10:38:56;;;;;;;0.90;0.73;;;17.10;71.30;;;;;;5048003;28;20951;-78
2022/02/19 10:41:34;;;;;;;3.73;0.90;;;17.20;70.70;;;;;;5048098;28;20467;-78
2022/02/19 10:44:24;;;;;;;2.10;1.10;;;17.10;67.40;;;;;;5047345;28;20455;-77
2022/02/19 10:46:55;;;;;;;2.23;1.03;;;16.90;63.50;;;;;;5047872;28;20509;-78
2022/02/19 10:49:24;;;;;;;4.87;1.03;;;16.90;63.00;;;;;;5045928;28;20450;-78
2022/02/19 10:51:53;;;;;;;0.93;0.63;;;17.20;89.40;;;;;;5048028;28;20998;-79
2022/02/19 10:54:23;;;;;;;2.23;0.70;;;17.40;70.70;;;;;;5048297;28;20475;-78
2022/02/19 10:56:51;;;;;;;1.27;0.80;;;17.60;71.40;;;;;;5046639;28;20974;-77
2022/02/19 10:59:30;;;;;;;2.50;0.83;;;17.90;75.50;;;;;;5047320;28;20555;-78
2022/02/19 11:02:00;;;;;;;1.37;0.90;;;18.00;72.60;;;;;;5045035;28;20483;-77
2022/02/19 11:04:28;;;;;;;3.20;1.00;;;18.30;80.00;;;;;;5047941;28;20458;-78
2022/02/19 11:06:58;;;;;;;1.07;0.60;;;18.70;88.60;;;;;;5039420;28;21116;-79
2022/02/19 11:09:27;;;;;;;1.10;0.80;;;19.00;88.90;;;;;;5044205;28;20481;-78
2022/02/19 11:11:58;;;;;;;1.87;0.90;;;19.30;91.60;;;;;;5043020;28;20467;-77
2022/02/19 11:14:28;;;;;;;1.37;0.70;;;19.70;91.90;;;;;;5049170;28;20477;-78
2022/02/19 11:16:59;;;;;;;1.90;1.00;;;19.80;93.30;;;;;;5036945;28;20460;-78
2022/02/19 11:19:28;;;;;;;3.90;1.07;;;20.20;95.30;;;;;;5049580;28;20451;-78
2022/02/19 11:21:58;;;;;;;1.03;0.70;;;20.30;95.70;;;;;;5050314;28;20479;-78
2022/02/19 11:24:28;;;;;;;1.20;0.63;;;20.10;91.90;;;;;;5051642;28;20447;-78
2022/02/19 11:27:00;;;;;;;0.80;0.70;;;20.20;91.90;;;;;;5042935;28;20447;-78
2022/02/19 11:29:29;;;;;;;2.80;0.70;;;20.30;92.10;;;;;;5047351;28;20447;-78
2022/02/19 11:32:02;;;;;;;1.00;0.70;;;20.40;91.40;;;;;;5045555;28;21077;-77
2022/02/19 11:34:30;;;;;;;2.77;1.00;;;20.50;91.70;;;;;;5045662;28;20835;-77
2022/02/19 11:37:13;;;;;;;2.27;0.80;;;20.20;89.00;;;;;;5041306;28;20466;-79
2022/02/19 11:40:05;;;;;;;1.30;0.80;;;20.00;84.60;;;;;;5037587;28;20483;-79
2022/02/19 11:42:48;;;;;;;0.90;0.70;;;19.60;78.10;;;;;;5043659;28;20999;-79
2022/02/19 11:45:28;;;;;;;3.50;0.80;;;19.00;68.50;;;;;;5045934;28;20465;-78
2022/02/19 11:48:29;;;;;;;2.90;0.60;;;18.70;82.40;;;;;;5044146;28;21013;-78
2022/02/19 11:51:17;;;;;;;1.27;0.80;;;18.30;59.10;;;;;;5039889;28;20799;-78
2022/02/19 11:53:46;;;;;;;2.10;0.70;;;17.90;52.80;;;;;;5045724;28;20482;-79
2022/02/19 11:56:28;;;;;;;1.73;0.60;;;17.60;48.60;;;;;;5046843;28;20455;-78
2022/02/19 11:58:58;;;;;;;0.97;0.77;;;16.90;40.30;;;;;;5050769;28;20478;-80
2022/02/19 12:01:26;;;;;;;2.33;0.80;;;16.60;37.90;;;;;;5048974;28;20550;-78
2022/02/19 12:04:17;;;;;;;0.60;0.60;;;16.20;34.10;;;;;;5042553;28;21124;-78
2022/02/19 12:06:46;;;;;;;1.50;0.60;;;16.10;31.80;;;;;;5038771;28;21045;-77
2022/02/19 12:09:16;;;;;;;1.30;0.70;;;16.10;32.50;;;;;;5041882;28;20466;-80
2022/02/19 12:12:07;;;;;;;0.77;0.70;;;16.20;35.00;;;;;;5041958;28;20467;-77
2022/02/19 12:15:01;;;;;;;4.00;0.77;;;16.30;34.30;;;;;;5040595;28;21756;-78
2022/02/19 12:17:46;;;;;;;2.67;0.77;;;16.20;32.80;;;;;;5040291;28;20469;-78
2022/02/19 12:20:27;;;;;;;2.10;0.70;;;15.80;28.80;;;;;;5045439;28;20490;-78
2022/02/19 12:23:01;;;;;;;1.30;0.80;;;15.70;27.60;;;;;;5045348;28;21337;-78
2022/02/19 12:26:07;;;;;;;7.03;0.87;;;15.90;30.00;;;;;;5040453;28;20458;-78
2022/02/19 12:28:40;;;;;;;2.30;0.77;;;15.90;29.60;;;;;;5041810;28;20467;-78
2022/02/19 12:31:21;;;;;;;1.43;0.80;;;16.00;30.50;;;;;;5053181;28;20477;-78
2022/02/19 12:33:51;;;;;;;0.80;0.60;;;15.70;26.50;;;;;;5038910;28;20556;-77
2022/02/19 12:36:22;;;;;;;1.20;0.97;;;15.60;27.30;;;;;;5042380;28;20470;-78
2022/02/19 12:38:53;;;;;;;2.40;0.67;;;15.40;25.80;;;;;;5043680;28;20499;-78
2022/02/19 12:41:22;;;;;;;3.17;0.60;;;15.50;26.90;;;;;;5043261;28;20902;-79
2022/02/19 12:44:13;;;;;;;1.47;0.70;;;15.30;25.10;;;;;;5041810;28;20477;-76
2022/02/19 12:46:42;;;;;;;1.43;0.70;;;15.50;29.80;;;;;;5038538;28;21323;-76
2022/02/19 12:49:12;;;;;;;3.73;1.10;;;15.70;31.70;;;;;;5043486;28;20453;-76
2022/02/19 12:51:54;;;;;;;0.93;0.80;;;15.80;34.70;;;;;;5042979;28;20566;-77
2022/02/19 12:54:37;;;;;;;1.80;0.70;;;16.00;36.60;;;;;;5043364;28;20516;-78
2022/02/19 12:57:06;;;;;;;1.27;0.80;;;16.00;35.00;;;;;;5041374;28;21057;-78
2022/02/19 12:59:36;;;;;;;1.50;0.80;;;15.90;35.40;;;;;;5038797;28;21028;-77
2022/02/19 13:02:06;;;;;;;0.60;0.60;;;15.80;34.10;;;;;;5053964;28;20476;-80
2022/02/19 13:04:36;;;;;;;1.03;0.60;;;16.00;34.40;;;;;;5035708;28;20441;-78
2022/02/19 13:07:07;;;;;;;2.93;0.70;;;16.00;33.20;;;;;;5043945;28;20447;-79
2022/02/19 13:09:36;;;;;;;3.03;0.77;;;15.60;29.00;;;;;;5044880;28;20456;-78
2022/02/19 13:12:06;;;;;;;0.67;0.50;;;15.50;27.90;;;;;;5045066;28;20839;-78
2022/02/19 13:14:35;;;;;;;0.93;0.60;;;15.50;26.60;;;;;;5041074;28;20560;-79